Mission Hills, California
Current Conditions -  °F | °C
As of 4:55 AM on Thursday 23 Oct 2014 (Local Time) from KLPC Reporting Station
Clear Clear  
Wind Chill: 50°   Ceiling: Unl
Heat Index: 50°   Visibility: 10mi
Dew Point: 45°   Wind: 6mph
Humidity: 82%   Direction: 90°E
Pressure: 29.96"   Gusts: NA
Location:  34.69°N, 120.44°W
Report Text: KLPC 231155Z AUTO 09005KT 10SM CLR 10/07 A2996 RMK AO1 10130 20090 57010
Loading
Personal Weather Stations






























Interactive Weather Map
Tropical Storm Tracking
New forecast layout! Learn more

10-Day Weather Forecast

Advertisements
Track Severe Weather on mobile